Time;durP1;ratioP1;P1;durP2;ratioP2;P2;SDS_P1;SDS_P2;PMS_P1;PMS_P2;Temp;Humidity;BMP_temperature;BMP_pressure;BME280_temperature;BME280_humidity;BME280_pressure;Samples;Min_cycle;Max_cycle;Signal;HPM_P1;HPM_P2
2023/07/17 00:00:56;;;;;;;4.95;2.35;;;;;;;19.97;53.66;100801.75;4998551;28;20045;-85
2023/07/17 00:03:25;;;;;;;4.75;2.22;;;;;;;19.93;53.68;100797.53;5029694;28;20932;-85
2023/07/17 00:05:58;;;;;;;4.10;2.83;;;;;;;19.93;53.64;100797.53;5052314;28;20072;-86
2023/07/17 00:08:26;;;;;;;5.20;1.90;;;;;;;19.89;53.57;100806.56;5018536;28;20045;-85
2023/07/17 00:10:53;;;;;;;4.88;2.58;;;;;;;19.82;53.69;100801.53;5017912;28;20174;-86
2023/07/17 00:13:20;;;;;;;2.45;1.90;;;;;;;19.77;53.58;100792.88;5015306;28;20578;-84
2023/07/17 00:15:47;;;;;;;3.90;2.40;;;;;;;19.70;53.92;100794.09;4998868;28;20937;-84
2023/07/17 00:18:16;;;;;;;5.00;2.35;;;;;;;19.65;54.22;100799.59;5014045;28;20392;-85
2023/07/17 00:20:51;;;;;;;3.80;2.53;;;;;;;19.59;54.31;100794.56;5007245;28;20048;-84
2023/07/17 00:23:18;;;;;;;3.78;2.20;;;;;;;19.53;54.53;100801.94;4996918;28;20122;-84
2023/07/17 00:25:45;;;;;;;3.53;2.53;;;;;;;19.46;54.97;100801.34;4993962;28;20053;-84
2023/07/17 00:28:12;;;;;;;3.28;2.20;;;;;;;19.43;55.07;100810.31;4997640;28;20325;-85
2023/07/17 00:30:40;;;;;;;3.83;2.80;;;;;;;19.40;55.48;100813.09;5012714;28;20174;-85
2023/07/17 00:33:10;;;;;;;3.72;2.67;;;;;;;19.40;55.61;100817.53;5014956;28;20700;-84
2023/07/17 00:35:36;;;;;;;4.88;2.30;;;;;;;19.37;55.87;100817.66;5011845;28;20049;-84
2023/07/17 00:38:04;;;;;;;2.20;1.98;;;;;;;19.33;55.75;100812.50;5015216;28;20053;-85
2023/07/17 00:40:34;;;;;;;2.40;1.75;;;;;;;19.33;55.79;100822.25;5033845;28;20056;-84
2023/07/17 00:43:18;;;;;;;2.42;1.88;;;;;;;19.30;56.13;100819.72;5014477;28;20121;-85
2023/07/17 00:45:47;;;;;;;4.45;1.52;;;;;;;19.25;56.01;100827.03;5009109;28;20140;-85
2023/07/17 00:48:27;;;;;;;3.97;2.25;;;;;;;19.17;56.39;100817.59;4996402;28;20059;-85
2023/07/17 00:50:54;;;;;;;4.20;2.17;;;;;;;19.15;56.42;100819.47;5022262;28;20553;-85
2023/07/17 00:53:22;;;;;;;2.63;1.70;;;;;;;19.17;56.71;100830.00;5009796;28;20044;-84
2023/07/17 00:55:51;;;;;;;4.63;2.17;;;;;;;19.16;56.60;100823.84;5013178;28;20128;-84
2023/07/17 00:58:18;;;;;;;3.75;2.08;;;;;;;19.14;56.36;100825.69;4996587;28;20059;-84
2023/07/17 01:00:50;;;;;;;3.13;1.90;;;;;;;19.14;56.70;100824.84;5009666;28;20496;-84
2023/07/17 01:03:20;;;;;;;3.58;2.42;;;;;;;19.12;56.88;100819.56;4995137;28;20199;-85
2023/07/17 01:05:49;;;;;;;5.22;2.40;;;;;;;19.06;56.88;100822.50;5011696;28;20041;-84
2023/07/17 01:08:16;;;;;;;2.75;2.17;;;;;;;19.00;57.40;100817.44;5014834;28;20049;-86
2023/07/17 01:10:43;;;;;;;4.15;2.25;;;;;;;18.93;57.53;100808.88;4993045;28;20111;-84
2023/07/17 01:13:13;;;;;;;6.28;3.05;;;;;;;18.92;58.29;100816.91;5011420;28;20096;-84
2023/07/17 01:15:40;;;;;;;4.95;1.75;;;;;;;18.91;57.98;100813.38;5004878;28;20136;-84
2023/07/17 01:18:06;;;;;;;6.25;2.05;;;;;;;18.96;58.10;100810.53;5007881;28;20163;-84
2023/07/17 01:20:33;;;;;;;4.70;2.20;;;;;;;19.00;57.96;100809.47;4992392;28;20059;-84
2023/07/17 01:23:04;;;;;;;4.53;2.70;;;;;;;19.03;57.95;100803.19;4991281;28;20044;-85
2023/07/17 01:25:31;;;;;;;2.28;1.98;;;;;;;19.04;58.01;100804.91;5008816;28;20232;-85
2023/07/17 01:27:59;;;;;;;2.28;1.77;;;;;;;19.04;58.28;100807.56;4994096;28;20314;-84
2023/07/17 01:30:26;;;;;;;5.00;2.35;;;;;;;19.02;58.20;100805.00;4990473;28;20078;-84
2023/07/17 01:32:54;;;;;;;2.30;1.67;;;;;;;19.03;57.89;100803.19;4993254;28;20049;-85
2023/07/17 01:35:21;;;;;;;5.03;2.28;;;;;;;19.05;58.03;100796.88;4991824;28;20045;-84
2023/07/17 01:37:50;;;;;;;3.60;1.80;;;;;;;19.06;58.32;100795.97;5015532;28;20049;-84
2023/07/17 01:40:19;;;;;;;1.98;1.60;;;;;;;19.05;58.30;100799.53;5032740;28;20045;-85
2023/07/17 01:42:46;;;;;;;4.63;2.15;;;;;;;19.02;58.10;100797.03;5034896;28;20048;-84
2023/07/17 01:45:12;;;;;;;3.15;2.30;;;;;;;18.95;58.64;100803.50;5037912;28;20052;-85
2023/07/17 01:47:39;;;;;;;3.20;2.10;;;;;;;18.88;58.79;100796.69;5029131;28;20052;-84
2023/07/17 01:50:06;;;;;;;5.20;2.75;;;;;;;18.78;59.21;100804.16;5051023;28;20047;-85
2023/07/17 01:52:33;;;;;;;1.52;1.42;;;;;;;18.71;59.57;100805.34;5011416;28;20049;-85
2023/07/17 01:55:00;;;;;;;4.78;1.83;;;;;;;18.62;60.03;100806.59;5032712;28;20132;-85
2023/07/17 01:57:26;;;;;;;3.25;1.92;;;;;;;18.58;60.52;100802.34;5031567;28;20080;-84
2023/07/17 01:59:53;;;;;;;3.65;1.85;;;;;;;18.56;61.04;100799.72;5012885;28;20511;-84
2023/07/17 02:02:23;;;;;;;3.40;2.22;;;;;;;18.55;61.07;100802.44;5034679;28;20045;-84
2023/07/17 02:04:50;;;;;;;3.40;2.30;;;;;;;18.57;60.91;100790.00;5027904;28;20037;-84
2023/07/17 02:07:16;;;;;;;2.42;1.77;;;;;;;18.60;61.05;100797.81;5028811;28;20057;-84
2023/07/17 02:09:43;;;;;;;2.53;1.73;;;;;;;18.63;60.99;100793.25;5018890;28;20554;-84
2023/07/17 02:12:10;;;;;;;3.42;2.35;;;;;;;18.66;60.92;100794.94;5028753;28;20045;-84
2023/07/17 02:14:37;;;;;;;1.80;1.70;;;;;;;18.67;60.97;100789.56;5019101;28;20044;-84
2023/07/17 02:17:03;;;;;;;5.18;2.42;;;;;;;18.75;61.19;100796.34;5035304;28;20087;-85
2023/07/17 02:19:33;;;;;;;3.70;1.70;;;;;;;18.75;60.87;100791.91;5035804;28;20260;-85
2023/07/17 02:22:00;;;;;;;5.07;2.40;;;;;;;18.77;60.69;100799.78;5050072;28;20059;-85
2023/07/17 02:24:26;;;;;;;3.58;1.85;;;;;;;18.79;60.79;100795.28;5033776;28;20043;-85
2023/07/17 02:26:54;;;;;;;3.65;2.30;;;;;;;18.76;60.92;100792.75;5016136;28;20068;-85
2023/07/17 02:29:20;;;;;;;3.40;2.22;;;;;;;18.72;61.37;100799.09;5039281;28;20464;-83
2023/07/17 02:31:48;;;;;;;3.28;2.47;;;;;;;18.68;61.58;100807.19;5029732;28;20071;-84
2023/07/17 02:34:15;;;;;;;3.92;2.13;;;;;;;18.66;61.50;100814.34;5018659;28;20219;-84
2023/07/17 02:36:45;;;;;;;3.40;2.97;;;;;;;18.65;61.95;100814.41;5012872;28;20037;-84
2023/07/17 02:39:11;;;;;;;5.18;2.70;;;;;;;18.56;63.21;100818.28;5013517;28;20341;-84
2023/07/17 02:41:38;;;;;;;5.53;2.97;;;;;;;18.50;64.60;100824.69;5033275;28;20137;-84
2023/07/17 02:44:07;;;;;;;5.53;3.58;;;;;;;18.43;65.61;100814.41;5025399;28;20042;-84
2023/07/17 02:46:34;;;;;;;4.97;3.45;;;;;;;18.37;65.77;100815.50;5036895;28;20073;-85
2023/07/17 02:49:01;;;;;;;4.80;2.60;;;;;;;18.26;67.53;100815.91;5017567;28;20100;-85
2023/07/17 02:51:28;;;;;;;4.72;2.55;;;;;;;18.18;67.39;100823.28;5026619;28;20106;-85
2023/07/17 02:53:54;;;;;;;2.85;2.47;;;;;;;18.12;67.76;100823.53;5032061;28;20057;-86
2023/07/17 02:56:23;;;;;;;4.30;2.70;;;;;;;18.05;68.01;100827.34;5024693;28;20561;-85
2023/07/17 02:58:56;;;;;;;4.90;2.65;;;;;;;17.96;68.33;100818.78;5031479;28;20060;-86
2023/07/17 03:01:23;;;;;;;3.42;2.15;;;;;;;17.88;68.75;100825.28;5032526;28;20125;-85
2023/07/17 03:03:50;;;;;;;4.82;3.15;;;;;;;17.81;69.23;100827.28;5023279;28;20401;-83
2023/07/17 03:06:19;;;;;;;3.75;2.83;;;;;;;17.76;69.39;100839.84;5018703;28;20960;-85
2023/07/17 03:08:46;;;;;;;6.03;3.40;;;;;;;17.78;69.23;100851.22;5024093;28;20041;-85
2023/07/17 03:11:12;;;;;;;4.00;2.58;;;;;;;17.80;69.14;100855.53;5030054;28;20052;-84
2023/07/17 03:13:39;;;;;;;8.00;4.40;;;;;;;17.85;69.37;100863.31;5030194;28;20040;-85
2023/07/17 03:16:06;;;;;;;2.63;2.35;;;;;;;17.93;68.98;100852.50;5016067;28;20064;-84
2023/07/17 03:18:35;;;;;;;4.15;2.40;;;;;;;17.95;69.24;100854.16;5018369;28;20048;-85
2023/07/17 03:21:20;;;;;;;3.08;2.08;;;;;;;18.04;68.43;100854.75;5017907;28;20129;-84
2023/07/17 03:23:48;;;;;;;6.75;2.97;;;;;;;18.12;67.93;100853.53;5020320;28;20076;-83
2023/07/17 03:26:15;;;;;;;7.55;2.97;;;;;;;18.21;67.93;100867.34;5023454;28;20032;-85
2023/07/17 03:28:46;;;;;;;3.70;2.58;;;;;;;18.28;67.31;100869.72;5021722;28;20140;-85
2023/07/17 03:31:16;;;;;;;4.72;2.90;;;;;;;18.31;67.97;100879.34;5016939;28;20115;-85
2023/07/17 03:33:43;;;;;;;5.80;3.38;;;;;;;18.32;68.51;100899.63;5017003;28;20128;-85
2023/07/17 03:36:11;;;;;;;5.97;3.45;;;;;;;18.28;68.66;100890.06;5034353;28;20032;-84
2023/07/17 03:38:40;;;;;;;4.75;3.15;;;;;;;18.23;68.71;100886.72;5031658;28;20077;-85
2023/07/17 03:41:07;;;;;;;6.47;2.90;;;;;;;18.17;68.44;100887.78;5034513;28;20522;-85
2023/07/17 03:43:34;;;;;;;4.40;2.65;;;;;;;18.12;68.75;100877.38;5029169;28;20095;-85
2023/07/17 03:46:00;;;;;;;6.82;3.63;;;;;;;18.07;69.25;100871.38;5019736;28;20080;-85
2023/07/17 03:48:27;;;;;;;7.00;3.88;;;;;;;18.06;69.73;100872.31;5019333;28;20652;-84
2023/07/17 03:50:53;;;;;;;3.35;3.05;;;;;;;18.03;69.67;100867.13;5033795;28;20048;-84
2023/07/17 03:53:20;;;;;;;5.15;3.15;;;;;;;18.02;70.13;100870.69;5031023;28;20124;-83
2023/07/17 03:55:47;;;;;;;4.70;3.63;;;;;;;18.01;70.44;100876.91;5045535;28;20042;-84
2023/07/17 03:58:13;;;;;;;4.65;3.10;;;;;;;17.99;70.24;100873.44;5023072;28;20056;-83
2023/07/17 04:00:40;;;;;;;4.47;2.92;;;;;;;17.99;70.29;100874.31;5015236;28;20132;-85
2023/07/17 04:03:07;;;;;;;6.43;3.10;;;;;;;17.94;70.80;100878.91;5033570;28;20044;-85
2023/07/17 04:05:34;;;;;;;5.68;3.40;;;;;;;17.88;71.06;100873.81;5051529;28;20081;-85
2023/07/17 04:08:01;;;;;;;4.72;2.80;;;;;;;17.89;71.34;100882.63;5050976;28;20485;-85
2023/07/17 04:10:28;;;;;;;7.95;2.60;;;;;;;17.90;71.26;100879.91;5016196;28;20055;-85
2023/07/17 04:12:57;;;;;;;4.50;2.53;;;;;;;17.92;71.69;100882.50;5023387;28;20041;-85
2023/07/17 04:15:24;;;;;;;4.72;2.95;;;;;;;17.89;72.04;100890.56;5016765;28;20037;-85
2023/07/17 04:18:03;;;;;;;5.85;2.28;;;;;;;17.89;71.87;100883.47;5042491;28;20037;-87
2023/07/17 04:20:32;;;;;;;5.35;3.00;;;;;;;17.93;71.93;100882.47;5018031;28;20412;-86
2023/07/17 04:23:05;;;;;;;3.20;2.80;;;;;;;17.94;72.84;100884.22;5022803;28;20041;-84
2023/07/17 04:25:34;;;;;;;4.68;3.30;;;;;;;17.84;74.09;100898.66;5031056;28;20053;-84
2023/07/17 04:28:04;;;;;;;6.32;3.08;;;;;;;17.78;74.95;100897.13;5045988;28;20051;-85
2023/07/17 04:30:46;;;;;;;4.15;3.05;;;;;;;17.70;74.94;100899.13;5045835;28;20049;-85
2023/07/17 04:33:18;;;;;;;3.85;2.70;;;;;;;17.73;74.73;100901.69;5047331;28;20049;-86
2023/07/17 04:35:48;;;;;;;5.28;2.90;;;;;;;17.74;75.03;100898.13;5041688;28;20048;-86
2023/07/17 04:38:17;;;;;;;6.90;3.83;;;;;;;17.78;74.76;100904.16;5056937;28;20041;-85
2023/07/17 04:40:53;;;;;;;6.10;2.67;;;;;;;17.72;76.00;100891.13;5046695;28;20083;-86
2023/07/17 04:43:26;;;;;;;4.72;3.50;;;;;;;17.68;76.46;100901.00;5044823;28;20101;-86
2023/07/17 04:46:03;;;;;;;6.95;2.80;;;;;;;17.58;77.93;100907.53;5035464;28;20389;-87
2023/07/17 04:51:29;;;;;;;2.88;2.60;;;;;;;17.69;77.64;100887.69;5046622;28;20083;-85
2023/07/17 04:54:16;;;;;;;6.03;3.47;;;;;;;17.75;77.54;100907.78;5050803;28;20273;-85
2023/07/17 04:56:43;;;;;;;5.35;3.15;;;;;;;17.81;76.66;100902.28;5027142;28;20046;-85
2023/07/17 04:59:16;;;;;;;4.65;2.88;;;;;;;17.91;75.92;100900.16;5036461;28;20041;-85
2023/07/17 05:01:48;;;;;;;5.10;2.75;;;;;;;18.05;75.64;100897.06;5035508;28;20634;-84
2023/07/17 05:04:18;;;;;;;3.00;2.72;;;;;;;18.13;74.80;100894.13;5066130;28;20060;-85
2023/07/17 05:06:54;;;;;;;3.70;2.90;;;;;;;18.21;74.08;100901.81;5052771;28;20053;-85
2023/07/17 05:09:26;;;;;;;5.07;2.70;;;;;;;18.24;73.48;100891.06;5052291;28;20403;-85
2023/07/17 05:11:55;;;;;;;3.88;3.00;;;;;;;18.27;71.76;100893.63;5047869;28;20132;-85
2023/07/17 05:14:44;;;;;;;3.40;2.72;;;;;;;18.31;71.91;100892.59;5052793;28;20048;-85
2023/07/17 05:17:25;;;;;;;5.55;2.25;;;;;;;18.29;71.65;100902.38;5041541;28;20045;-85
2023/07/17 05:19:52;;;;;;;3.47;2.67;;;;;;;18.19;71.45;100897.41;5024379;28;20056;-84
2023/07/17 05:22:25;;;;;;;2.63;2.35;;;;;;;18.14;71.53;100893.22;5038280;28;20045;-85
2023/07/17 05:24:57;;;;;;;2.88;2.40;;;;;;;18.18;71.17;100892.19;5025289;28;20045;-85
2023/07/17 05:27:24;;;;;;;3.85;2.38;;;;;;;18.26;70.51;100894.56;5031902;28;20045;-86
2023/07/17 05:29:52;;;;;;;3.35;2.20;;;;;;;18.35;70.02;100896.84;5015820;28;20029;-85
2023/07/17 05:32:22;;;;;;;2.55;2.30;;;;;;;18.45;69.79;100895.59;5026480;28;20045;-86
2023/07/17 05:34:53;;;;;;;3.42;2.45;;;;;;;18.55;68.98;100892.56;5021527;28;20033;-85
2023/07/17 05:37:22;;;;;;;3.70;2.42;;;;;;;18.64;68.76;100903.72;5028613;28;20483;-87
2023/07/17 05:39:51;;;;;;;4.30;2.72;;;;;;;18.63;68.76;100906.38;5019795;28;20052;-87
2023/07/17 05:42:20;;;;;;;9.65;3.10;;;;;;;18.61;68.96;100905.59;5024279;28;20049;-86
2023/07/17 05:45:13;;;;;;;3.55;2.15;;;;;;;18.63;69.12;100912.56;5025337;28;20080;-85
2023/07/17 05:47:42;;;;;;;5.78;2.53;;;;;;;18.64;69.04;100913.44;5046155;28;20053;-85
2023/07/17 05:50:20;;;;;;;6.40;2.80;;;;;;;18.66;69.13;100920.41;5024509;28;20064;-86
2023/07/17 05:52:48;;;;;;;3.90;2.20;;;;;;;18.75;68.99;100931.59;5027459;28;20059;-86
2023/07/17 05:55:15;;;;;;;3.95;2.55;;;;;;;18.80;68.88;100933.13;5043487;28;20037;-85
2023/07/17 05:57:42;;;;;;;5.40;3.05;;;;;;;18.89;68.64;100925.72;5039023;28;20435;-85
2023/07/17 06:00:14;;;;;;;5.53;2.95;;;;;;;18.88;68.49;100929.31;5034507;28;20044;-87
2023/07/17 06:02:45;;;;;;;6.07;3.83;;;;;;;18.91;68.50;100930.09;5030812;28;20080;-87
2023/07/17 06:05:15;;;;;;;5.75;3.60;;;;;;;18.87;68.40;100923.16;5039634;28;20045;-86
2023/07/17 06:07:44;;;;;;;7.95;3.42;;;;;;;18.87;68.57;100931.09;5037953;28;20041;-87
2023/07/17 06:10:14;;;;;;;8.65;3.88;;;;;;;18.95;68.34;100942.31;5045700;28;20044;-88
2023/07/17 06:12:45;;;;;;;3.22;2.50;;;;;;;19.04;68.11;100937.56;5058299;28;20149;-87
2023/07/17 06:15:16;;;;;;;5.40;3.17;;;;;;;19.13;67.80;100935.41;5053125;28;20096;-88
2023/07/17 06:17:43;;;;;;;3.70;2.50;;;;;;;19.16;66.85;100950.34;5038216;28;20057;-88
2023/07/17 06:20:10;;;;;;;5.72;2.60;;;;;;;18.99;66.62;100949.25;5054796;28;20076;-87
2023/07/17 06:22:40;;;;;;;2.45;2.25;;;;;;;18.83;66.89;100948.06;5035881;28;20048;-87
2023/07/17 06:25:07;;;;;;;4.18;2.10;;;;;;;18.87;67.01;100957.63;5008590;28;20048;-88
2023/07/17 06:27:34;;;;;;;5.75;2.35;;;;;;;18.80;67.15;100949.06;5021822;28;20044;-88
2023/07/17 06:30:02;;;;;;;3.28;2.05;;;;;;;18.80;66.48;100950.84;5018720;28;20048;-86
2023/07/17 06:32:29;;;;;;;2.15;1.77;;;;;;;18.72;67.00;100952.91;5000873;28;20414;-86
2023/07/17 06:34:55;;;;;;;4.85;2.75;;;;;;;18.71;66.89;100944.09;5034698;28;20055;-86
2023/07/17 06:37:22;;;;;;;2.83;2.53;;;;;;;18.73;67.29;100952.00;5028251;28;20045;-87
2023/07/17 06:39:49;;;;;;;4.88;2.20;;;;;;;18.71;67.29;100945.88;5019044;28;20392;-87
2023/07/17 06:42:16;;;;;;;3.60;2.65;;;;;;;18.66;67.32;100956.69;5020844;28;20802;-87
2023/07/17 06:44:43;;;;;;;3.00;2.17;;;;;;;18.68;67.90;100954.81;5050678;28;20049;-86
2023/07/17 06:47:09;;;;;;;3.35;2.33;;;;;;;18.77;67.88;100959.78;5034437;28;20255;-86
2023/07/17 06:49:37;;;;;;;4.10;2.25;;;;;;;18.81;67.46;100948.13;5037316;28;21139;-86
2023/07/17 06:52:04;;;;;;;5.85;3.17;;;;;;;18.88;67.44;100955.81;5049902;28;20508;-88
2023/07/17 06:54:32;;;;;;;2.67;1.80;;;;;;;18.84;67.39;100961.25;5018203;28;20384;-86
2023/07/17 06:56:59;;;;;;;4.72;2.33;;;;;;;18.90;67.54;100959.34;5035772;28;20045;-86
2023/07/17 06:59:28;;;;;;;5.82;2.50;;;;;;;18.88;67.63;100966.44;5031654;28;20109;-85
2023/07/17 07:01:55;;;;;;;5.43;2.22;;;;;;;18.83;67.95;100966.63;5018225;28;20136;-86
2023/07/17 07:04:22;;;;;;;3.70;2.53;;;;;;;18.86;68.11;100963.84;5021604;28;20055;-87
2023/07/17 07:06:49;;;;;;;6.80;2.05;;;;;;;19.04;67.96;100961.47;5045727;28;20056;-86
2023/07/17 07:09:16;;;;;;;2.55;1.98;;;;;;;19.28;67.06;100963.13;5008650;28;20061;-87
2023/07/17 07:11:43;;;;;;;2.63;2.13;;;;;;;19.48;66.22;100961.44;5018179;28;20063;-87
2023/07/17 07:14:10;;;;;;;3.22;2.03;;;;;;;19.65;65.25;100956.28;5036207;28;20144;-88
2023/07/17 07:16:39;;;;;;;4.18;3.15;;;;;;;19.86;63.87;100960.81;5032635;28;20483;-87
2023/07/17 07:19:09;;;;;;;3.85;2.28;;;;;;;20.05;63.12;100966.16;5014912;28;20684;-87
2023/07/17 07:21:36;;;;;;;3.42;1.90;;;;;;;20.20;62.68;100964.63;5030330;28;20041;-85
2023/07/17 07:24:07;;;;;;;2.10;1.83;;;;;;;20.38;61.58;100968.28;5033182;28;20094;-86
2023/07/17 07:26:34;;;;;;;4.70;1.80;;;;;;;20.65;60.22;100971.47;5029634;28;20128;-85
2023/07/17 07:29:03;;;;;;;6.15;2.00;;;;;;;20.76;58.55;100974.50;5035033;28;20102;-86
2023/07/17 07:31:39;;;;;;;1.50;1.40;;;;;;;21.06;57.77;100974.00;5052877;28;20071;-84
2023/07/17 07:34:06;;;;;;;4.45;2.10;;;;;;;21.61;57.01;100973.13;5047990;28;20051;-86
2023/07/17 07:36:35;;;;;;;1.90;1.67;;;;;;;22.09;54.02;100964.50;5036501;28;20051;-88
2023/07/17 07:39:09;;;;;;;3.47;1.67;;;;;;;22.05;54.36;100962.94;5037246;28;20054;-89
2023/07/17 07:41:39;;;;;;;4.05;1.38;;;;;;;22.37;54.06;100955.94;5022042;28;20113;-88
2023/07/17 07:44:07;;;;;;;3.28;1.98;;;;;;;23.13;52.32;100973.13;5001779;28;20109;-87
2023/07/17 07:46:34;;;;;;;2.00;1.60;;;;;;;23.54;50.50;100975.25;5016060;28;20494;-88
2023/07/17 07:49:03;;;;;;;5.70;2.15;;;;;;;23.64;49.12;100974.72;5019475;28;20051;-89
2023/07/17 07:51:32;;;;;;;1.65;1.55;;;;;;;23.97;47.60;100971.88;5022931;28;20043;-87
2023/07/17 07:54:00;;;;;;;3.70;1.85;;;;;;;24.32;46.49;100976.03;5049609;28;20091;-86
2023/07/17 07:56:32;;;;;;;2.50;2.05;;;;;;;24.29;45.50;100969.06;5020882;28;20041;-85
2023/07/17 07:59:00;;;;;;;3.17;2.35;;;;;;;24.40;45.23;100982.59;5019136;28;20046;-87
2023/07/17 08:01:28;;;;;;;2.25;1.52;;;;;;;24.31;44.32;100988.53;5016979;28;20139;-85
2023/07/17 08:03:55;;;;;;;1.55;1.45;;;;;;;24.66;43.44;100974.78;5020697;28;20747;-86
2023/07/17 08:06:21;;;;;;;1.38;1.27;;;;;;;24.56;43.68;100987.88;5037608;28;20611;-86
2023/07/17 08:08:48;;;;;;;2.97;1.58;;;;;;;24.23;42.39;100989.00;5025097;28;20049;-87
2023/07/17 08:11:21;;;;;;;3.40;1.40;;;;;;;23.95;43.52;100987.16;5025044;28;20136;-87
2023/07/17 08:13:47;;;;;;;6.28;1.92;;;;;;;23.82;43.12;100987.00;5025259;28;20040;-87
2023/07/17 08:16:19;;;;;;;2.90;1.20;;;;;;;23.84;43.04;100992.25;5022126;28;20515;-88
2023/07/17 08:18:46;;;;;;;3.13;1.52;;;;;;;24.54;41.68;100983.59;5051849;28;20037;-86
2023/07/17 08:21:14;;;;;;;1.90;1.52;;;;;;;24.28;41.07;100994.91;5037301;28;20061;-87
2023/07/17 08:23:41;;;;;;;3.85;1.45;;;;;;;24.36;40.58;100980.22;5053981;28;20049;-86
2023/07/17 08:26:08;;;;;;;1.73;1.42;;;;;;;24.69;39.84;100977.28;5033731;28;20052;-87
2023/07/17 08:28:35;;;;;;;3.65;1.67;;;;;;;24.78;40.18;100989.22;5025787;28;20410;-88
2023/07/17 08:31:03;;;;;;;1.67;1.58;;;;;;;25.22;39.88;100990.00;5040561;28;20068;-87
2023/07/17 08:33:29;;;;;;;2.35;1.50;;;;;;;25.95;38.50;100980.69;5026689;28;20041;-87
2023/07/17 08:35:56;;;;;;;3.05;1.33;;;;;;;26.50;37.39;100977.81;5022931;28;20485;-89
2023/07/17 08:38:23;;;;;;;1.35;1.20;;;;;;;26.72;36.79;100979.84;5014275;28;20052;-86
2023/07/17 08:40:56;;;;;;;2.63;1.60;;;;;;;26.61;37.05;100977.91;5039736;28;20045;-86
2023/07/17 08:43:24;;;;;;;2.60;2.00;;;;;;;26.16;37.38;100990.94;5040065;28;20148;-89
2023/07/17 08:45:53;;;;;;;3.42;1.75;;;;;;;26.59;37.18;100985.22;5033649;28;20053;-88
2023/07/17 08:48:21;;;;;;;5.30;2.53;;;;;;;26.49;37.23;100984.16;5038390;28;20778;-87
2023/07/17 08:50:51;;;;;;;4.00;2.47;;;;;;;25.64;38.61;100984.59;5021105;28;20496;-88
2023/07/17 08:53:26;;;;;;;6.00;2.30;;;;;;;25.42;38.89;100983.34;5038342;28;20068;-87
2023/07/17 08:55:55;;;;;;;3.37;1.50;;;;;;;25.03;39.29;100999.22;5020776;28;20136;-90
2023/07/17 08:58:24;;;;;;;2.53;1.65;;;;;;;25.55;38.47;100988.75;5037552;28;20570;-90
2023/07/17 09:00:51;;;;;;;3.65;1.88;;;;;;;25.26;38.10;101005.75;5038032;28;20048;-90
2023/07/17 09:03:19;;;;;;;2.03;1.42;;;;;;;24.91;38.24;100981.25;5040090;28;20571;-88
2023/07/17 09:05:46;;;;;;;3.72;1.83;;;;;;;24.47;39.16;100993.81;5039029;28;20045;-88
2023/07/17 09:08:14;;;;;;;4.38;1.67;;;;;;;25.24;38.28;100988.94;5040833;28;20045;-87
2023/07/17 09:10:43;;;;;;;1.90;1.45;;;;;;;26.22;36.76;100983.31;5044801;28;20055;-89
2023/07/17 09:13:11;;;;;;;2.17;1.80;;;;;;;26.52;35.05;100986.63;5034918;28;20041;-87
2023/07/17 09:15:41;;;;;;;1.40;1.30;;;;;;;26.39;35.42;100978.59;5039212;28;20041;-88
2023/07/17 09:18:07;;;;;;;2.47;1.70;;;;;;;26.30;35.45;100992.66;5037121;28;20044;-85
2023/07/17 09:20:40;;;;;;;3.65;1.05;;;;;;;25.75;36.10;100990.94;5036992;28;20466;-86
2023/07/17 09:23:07;;;;;;;2.03;1.63;;;;;;;26.13;35.60;100985.78;5037953;28;20131;-88
2023/07/17 09:25:36;;;;;;;4.68;1.88;;;;;;;25.74;36.30;100994.59;5039196;28;20041;-86
2023/07/17 09:28:02;;;;;;;3.60;1.65;;;;;;;25.17;37.46;100997.47;5037638;28;20556;-86
2023/07/17 09:30:31;;;;;;;2.03;1.70;;;;;;;24.90;37.50;100996.47;5050910;28;20519;-87
2023/07/17 09:33:09;;;;;;;4.68;1.73;;;;;;;24.90;37.20;100991.13;5033586;28;20059;-87
2023/07/17 09:35:38;;;;;;;7.53;1.58;;;;;;;24.54;38.17;100988.94;5040425;28;20049;-84
2023/07/17 09:38:10;;;;;;;3.63;1.83;;;;;;;24.13;38.56;100990.50;5051358;28;20094;-87
2023/07/17 09:40:37;;;;;;;2.08;1.80;;;;;;;23.35;39.82;101010.19;5018270;28;20524;-85
2023/07/17 09:43:07;;;;;;;1.75;1.65;;;;;;;23.82;39.66;101000.34;5039321;28;20044;-86
2023/07/17 09:45:34;;;;;;;4.13;2.15;;;;;;;24.55;37.78;101006.72;5038296;28;20393;-87
2023/07/17 09:48:05;;;;;;;4.82;1.73;;;;;;;24.19;38.12;100998.16;5035796;28;20055;-86
2023/07/17 09:50:31;;;;;;;3.08;1.95;;;;;;;24.72;37.12;100997.66;5021280;28;20052;-86
2023/07/17 09:53:00;;;;;;;3.80;1.73;;;;;;;24.47;37.29;100998.28;5019204;28;20056;-85
2023/07/17 09:55:27;;;;;;;4.00;2.28;;;;;;;24.57;37.15;101004.78;5036699;28;20063;-85
2023/07/17 09:57:59;;;;;;;2.42;2.20;;;;;;;24.18;37.92;101004.47;5037421;28;20560;-85
2023/07/17 10:00:26;;;;;;;2.67;1.60;;;;;;;24.43;38.19;101009.19;5024885;28;20052;-86
2023/07/17 10:03:09;;;;;;;2.28;1.85;;;;;;;24.43;38.27;101011.88;5014270;28;20144;-86
2023/07/17 10:05:38;;;;;;;1.95;1.73;;;;;;;26.04;34.40;101000.69;5017360;28;20037;-84
2023/07/17 10:08:10;;;;;;;2.50;1.98;;;;;;;26.97;32.89;101004.94;5036254;28;20045;-86
2023/07/17 10:10:40;;;;;;;2.38;2.03;;;;;;;28.26;31.13;101009.69;5019024;28;20045;-86
2023/07/17 10:13:11;;;;;;;4.90;2.63;;;;;;;29.30;30.21;101002.31;5018455;28;20048;-87
2023/07/17 10:15:38;;;;;;;3.97;2.30;;;;;;;30.75;27.73;100994.47;5014826;28;20074;-87
2023/07/17 10:18:11;;;;;;;1.92;1.70;;;;;;;30.24;28.25;101005.16;5020668;28;20045;-88
2023/07/17 10:20:38;;;;;;;3.38;1.80;;;;;;;28.79;30.09;101011.81;5017608;28;20054;-86
2023/07/17 10:23:29;;;;;;;3.38;2.15;;;;;;;28.98;29.58;101009.34;5050302;28;20087;-87
2023/07/17 10:26:14;;;;;;;3.60;2.30;;;;;;;28.21;29.57;101013.59;5036612;28;20547;-86
2023/07/17 10:28:42;;;;;;;2.55;2.35;;;;;;;26.41;31.89;101015.09;5036287;28;20773;-86
2023/07/17 10:31:11;;;;;;;3.20;1.80;;;;;;;25.00;34.22;101020.00;5019840;28;20073;-86
2023/07/17 10:33:39;;;;;;;2.67;2.28;;;;;;;25.65;33.54;101021.16;5034281;28;20063;-86
2023/07/17 10:36:06;;;;;;;3.03;2.83;;;;;;;25.97;33.48;101012.75;5023413;28;20139;-87
2023/07/17 10:38:38;;;;;;;3.22;2.28;;;;;;;25.17;34.16;101019.75;5020592;28;20048;-86
2023/07/17 10:41:15;;;;;;;2.47;2.25;;;;;;;24.38;35.58;101021.09;5044070;28;20059;-86
2023/07/17 10:44:03;;;;;;;7.07;2.15;;;;;;;23.80;36.72;101018.28;5062789;28;20045;-86
2023/07/17 10:46:37;;;;;;;3.30;2.33;;;;;;;25.06;35.07;101020.44;5042030;28;20037;-85
2023/07/17 10:49:14;;;;;;;4.35;2.33;;;;;;;26.21;33.05;101019.16;5021993;28;20049;-88
2023/07/17 10:51:51;;;;;;;2.58;2.03;;;;;;;27.69;30.86;101014.88;5021950;28;20457;-86
2023/07/17 10:54:20;;;;;;;2.92;1.80;;;;;;;28.88;29.66;101005.69;5029616;28;20143;-88
2023/07/17 10:56:52;;;;;;;2.35;1.92;;;;;;;28.44;29.95;101019.00;5044782;28;20072;-87
2023/07/17 10:59:22;;;;;;;3.63;2.28;;;;;;;27.35;31.10;101014.69;5019873;28;20534;-87
2023/07/17 11:01:51;;;;;;;6.10;2.05;;;;;;;27.42;31.44;101016.00;5011687;28;20067;-87
2023/07/17 11:04:19;;;;;;;2.40;1.85;;;;;;;28.72;29.69;101006.03;5029554;28;20103;-87
2023/07/17 11:06:45;;;;;;;4.50;2.25;;;;;;;29.87;28.45;101021.84;5023339;28;20099;-87
2023/07/17 11:09:12;;;;;;;3.22;2.53;;;;;;;29.83;28.25;101026.63;5015866;28;20048;-87
2023/07/17 11:11:38;;;;;;;6.63;2.30;;;;;;;29.16;29.41;101022.28;5024188;28;20298;-87
2023/07/17 11:14:08;;;;;;;4.45;2.40;;;;;;;28.87;29.26;101015.59;5016961;28;20053;-86
2023/07/17 11:16:34;;;;;;;2.30;1.95;;;;;;;28.46;28.72;101014.34;5027924;28;20040;-86
2023/07/17 11:19:03;;;;;;;4.82;2.08;;;;;;;28.07;30.08;101027.28;5028415;28;20079;-85
2023/07/17 11:21:32;;;;;;;3.22;2.50;;;;;;;27.03;31.67;101036.72;5029424;28;20041;-86
2023/07/17 11:24:01;;;;;;;3.92;2.50;;;;;;;27.08;32.36;101029.19;5029385;28;20075;-86
2023/07/17 11:26:32;;;;;;;5.88;2.55;;;;;;;26.39;33.28;101030.44;5029627;28;20076;-86
2023/07/17 11:29:02;;;;;;;3.97;2.85;;;;;;;25.15;34.95;101040.44;5044837;28;20045;-87
2023/07/17 11:31:35;;;;;;;4.40;2.78;;;;;;;24.49;36.11;101052.59;5042876;28;20122;-86
2023/07/17 11:34:10;;;;;;;4.43;2.55;;;;;;;24.38;36.02;101039.84;5030023;28;20128;-88
2023/07/17 11:36:45;;;;;;;3.35;2.63;;;;;;;24.33;36.40;101040.13;5042189;28;20037;-85